sensor_id;sensor_type;location;lat;lon;timestamp;pressure;altitude;pressure_sealevel;temperature
15575;BMP180;7888;46.748;8.102;2022-12-15T00:01:30;92570.00;;;8.10
15575;BMP180;7888;46.748;8.102;2022-12-15T00:04:15;92562.00;;;8.00
15575;BMP180;7888;46.748;8.102;2022-12-15T00:06:59;92555.00;;;8.00
15575;BMP180;7888;46.748;8.102;2022-12-15T00:09:43;92554.00;;;8.00
15575;BMP180;7888;46.748;8.102;2022-12-15T00:12:27;92555.00;;;8.00
15575;BMP180;7888;46.748;8.102;2022-12-15T00:15:12;92553.00;;;7.90
15575;BMP180;7888;46.748;8.102;2022-12-15T00:17:56;92561.00;;;8.00
15575;BMP180;7888;46.748;8.102;2022-12-15T00:20:40;92568.00;;;7.90
15575;BMP180;7888;46.748;8.102;2022-12-15T00:23:24;92554.00;;;7.90
15575;BMP180;7888;46.748;8.102;2022-12-15T00:26:08;92564.00;;;7.80
15575;BMP180;7888;46.748;8.102;2022-12-15T00:28:52;92568.00;;;7.80
15575;BMP180;7888;46.748;8.102;2022-12-15T00:31:36;92546.00;;;7.70
15575;BMP180;7888;46.748;8.102;2022-12-15T00:34:20;92562.00;;;7.80
15575;BMP180;7888;46.748;8.102;2022-12-15T00:37:04;92560.00;;;7.80
15575;BMP180;7888;46.748;8.102;2022-12-15T00:39:48;92558.00;;;7.70
15575;BMP180;7888;46.748;8.102;2022-12-15T00:42:27;92555.00;;;7.70
15575;BMP180;7888;46.748;8.102;2022-12-15T00:44:54;92563.00;;;7.70
15575;BMP180;7888;46.748;8.102;2022-12-15T00:47:22;92557.00;;;7.80
15575;BMP180;7888;46.748;8.102;2022-12-15T00:49:48;92566.00;;;7.80
15575;BMP180;7888;46.748;8.102;2022-12-15T00:52:43;92565.00;;;7.70
15575;BMP180;7888;46.748;8.102;2022-12-15T00:55:27;92560.00;;;7.70
15575;BMP180;7888;46.748;8.102;2022-12-15T00:58:12;92568.00;;;7.70
15575;BMP180;7888;46.748;8.102;2022-12-15T01:00:56;92567.00;;;7.70
15575;BMP180;7888;46.748;8.102;2022-12-15T01:03:41;92564.00;;;7.80
15575;BMP180;7888;46.748;8.102;2022-12-15T01:06:25;92568.00;;;7.80
15575;BMP180;7888;46.748;8.102;2022-12-15T01:09:12;92570.00;;;7.80
15575;BMP180;7888;46.748;8.102;2022-12-15T01:11:57;92582.00;;;7.80
15575;BMP180;7888;46.748;8.102;2022-12-15T01:14:41;92571.00;;;7.80
15575;BMP180;7888;46.748;8.102;2022-12-15T01:17:26;92577.00;;;7.80
15575;BMP180;7888;46.748;8.102;2022-12-15T01:20:10;92575.00;;;7.80
15575;BMP180;7888;46.748;8.102;2022-12-15T01:22:53;92583.00;;;7.80
15575;BMP180;7888;46.748;8.102;2022-12-15T01:25:23;92587.00;;;7.80
15575;BMP180;7888;46.748;8.102;2022-12-15T01:27:50;92581.00;;;7.80
15575;BMP180;7888;46.748;8.102;2022-12-15T01:30:24;92598.00;;;7.80
15575;BMP180;7888;46.748;8.102;2022-12-15T01:32:50;92604.00;;;7.80
15575;BMP180;7888;46.748;8.102;2022-12-15T01:35:17;92607.00;;;7.80
15575;BMP180;7888;46.748;8.102;2022-12-15T01:37:44;92604.00;;;7.80
15575;BMP180;7888;46.748;8.102;2022-12-15T01:40:16;92595.00;;;7.80
15575;BMP180;7888;46.748;8.102;2022-12-15T01:43:01;92595.00;;;7.90
15575;BMP180;7888;46.748;8.102;2022-12-15T01:48:08;92587.00;;;7.90
15575;BMP180;7888;46.748;8.102;2022-12-15T01:50:51;92585.00;;;7.80
15575;BMP180;7888;46.748;8.102;2022-12-15T01:53:19;92594.00;;;7.80
15575;BMP180;7888;46.748;8.102;2022-12-15T01:55:46;92580.00;;;7.90
15575;BMP180;7888;46.748;8.102;2022-12-15T01:58:15;92582.00;;;7.90
15575;BMP180;7888;46.748;8.102;2022-12-15T02:00:42;92579.00;;;7.80
15575;BMP180;7888;46.748;8.102;2022-12-15T02:03:09;92564.00;;;7.80
15575;BMP180;7888;46.748;8.102;2022-12-15T02:05:36;92578.00;;;7.80
15575;BMP180;7888;46.748;8.102;2022-12-15T02:08:03;92582.00;;;7.80
15575;BMP180;7888;46.748;8.102;2022-12-15T02:20:42;92594.00;;;7.60
15575;BMP180;7888;46.748;8.102;2022-12-15T02:26:43;92599.00;;;7.60
15575;BMP180;7888;46.748;8.102;2022-12-15T02:29:37;92608.00;;;7.60
15575;BMP180;7888;46.748;8.102;2022-12-15T02:32:20;92602.00;;;7.60
15575;BMP180;7888;46.748;8.102;2022-12-15T02:35:01;92600.00;;;7.60
15575;BMP180;7888;46.748;8.102;2022-12-15T02:37:37;92599.00;;;7.60
15575;BMP180;7888;46.748;8.102;2022-12-15T02:40:07;92598.00;;;7.70
15575;BMP180;7888;46.748;8.102;2022-12-15T02:42:42;92596.00;;;7.70
15575;BMP180;7888;46.748;8.102;2022-12-15T02:45:14;92595.00;;;7.70
15575;BMP180;7888;46.748;8.102;2022-12-15T02:57:18;92587.00;;;7.60
15575;BMP180;7888;46.748;8.102;2022-12-15T03:02:26;92579.00;;;7.60
15575;BMP180;7888;46.748;8.102;2022-12-15T03:04:55;92588.00;;;7.70
15575;BMP180;7888;46.748;8.102;2022-12-15T03:07:23;92589.00;;;7.60
15575;BMP180;7888;46.748;8.102;2022-12-15T03:09:58;92587.00;;;7.60
15575;BMP180;7888;46.748;8.102;2022-12-15T03:12:24;92583.00;;;7.70
15575;BMP180;7888;46.748;8.102;2022-12-15T03:14:50;92590.00;;;7.70
15575;BMP180;7888;46.748;8.102;2022-12-15T03:17:16;92584.00;;;7.70
15575;BMP180;7888;46.748;8.102;2022-12-15T03:19:42;92586.00;;;7.70
15575;BMP180;7888;46.748;8.102;2022-12-15T03:22:08;92584.00;;;7.70
15575;BMP180;7888;46.748;8.102;2022-12-15T03:24:34;92575.00;;;7.70
15575;BMP180;7888;46.748;8.102;2022-12-15T03:27:00;92581.00;;;7.70
15575;BMP180;7888;46.748;8.102;2022-12-15T03:29:26;92569.00;;;7.70
15575;BMP180;7888;46.748;8.102;2022-12-15T03:31:51;92587.00;;;7.70
15575;BMP180;7888;46.748;8.102;2022-12-15T03:34:17;92580.00;;;7.70
15575;BMP180;7888;46.748;8.102;2022-12-15T03:36:43;92579.00;;;7.70
15575;BMP180;7888;46.748;8.102;2022-12-15T03:39:09;92584.00;;;7.70
15575;BMP180;7888;46.748;8.102;2022-12-15T03:41:35;92590.00;;;7.70
15575;BMP180;7888;46.748;8.102;2022-12-15T03:44:00;92596.00;;;7.70
15575;BMP180;7888;46.748;8.102;2022-12-15T03:46:26;92598.00;;;7.70
15575;BMP180;7888;46.748;8.102;2022-12-15T03:48:53;92606.00;;;7.70
15575;BMP180;7888;46.748;8.102;2022-12-15T03:51:19;92606.00;;;7.70
15575;BMP180;7888;46.748;8.102;2022-12-15T03:53:45;92613.00;;;7.70
15575;BMP180;7888;46.748;8.102;2022-12-15T03:56:15;92624.00;;;7.70
15575;BMP180;7888;46.748;8.102;2022-12-15T03:58:41;92620.00;;;7.70
15575;BMP180;7888;46.748;8.102;2022-12-15T04:01:32;92614.00;;;7.60
15575;BMP180;7888;46.748;8.102;2022-12-15T04:03:59;92617.00;;;7.70
15575;BMP180;7888;46.748;8.102;2022-12-15T04:06:25;92623.00;;;7.70
15575;BMP180;7888;46.748;8.102;2022-12-15T04:08:51;92626.00;;;7.70
15575;BMP180;7888;46.748;8.102;2022-12-15T04:11:17;92618.00;;;7.70
15575;BMP180;7888;46.748;8.102;2022-12-15T04:13:43;92616.00;;;7.70
15575;BMP180;7888;46.748;8.102;2022-12-15T04:16:09;92591.00;;;7.60
15575;BMP180;7888;46.748;8.102;2022-12-15T04:18:35;92593.00;;;7.60
15575;BMP180;7888;46.748;8.102;2022-12-15T04:21:01;92594.00;;;7.60
15575;BMP180;7888;46.748;8.102;2022-12-15T04:23:27;92605.00;;;7.60
15575;BMP180;7888;46.748;8.102;2022-12-15T04:25:52;92598.00;;;7.60
15575;BMP180;7888;46.748;8.102;2022-12-15T04:28:36;92594.00;;;7.60
15575;BMP180;7888;46.748;8.102;2022-12-15T04:31:27;92602.00;;;7.50
15575;BMP180;7888;46.748;8.102;2022-12-15T04:34:18;92593.00;;;7.50
15575;BMP180;7888;46.748;8.102;2022-12-15T04:37:06;92599.00;;;7.50
15575;BMP180;7888;46.748;8.102;2022-12-15T04:39:53;92599.00;;;7.40
15575;BMP180;7888;46.748;8.102;2022-12-15T04:42:43;92603.00;;;7.40
15575;BMP180;7888;46.748;8.102;2022-12-15T04:45:28;92612.00;;;7.40
15575;BMP180;7888;46.748;8.102;2022-12-15T04:48:13;92613.00;;;7.40
15575;BMP180;7888;46.748;8.102;2022-12-15T04:50:57;92619.00;;;7.40
15575;BMP180;7888;46.748;8.102;2022-12-15T04:53:43;92616.00;;;7.40
15575;BMP180;7888;46.748;8.102;2022-12-15T04:56:28;92609.00;;;7.30
15575;BMP180;7888;46.748;8.102;2022-12-15T04:59:12;92606.00;;;7.30
15575;BMP180;7888;46.748;8.102;2022-12-15T05:01:57;92603.00;;;7.20
15575;BMP180;7888;46.748;8.102;2022-12-15T05:04:41;92608.00;;;7.20
15575;BMP180;7888;46.748;8.102;2022-12-15T05:07:25;92607.00;;;7.20
15575;BMP180;7888;46.748;8.102;2022-12-15T05:10:10;92614.00;;;7.20
15575;BMP180;7888;46.748;8.102;2022-12-15T05:12:54;92612.00;;;7.20
15575;BMP180;7888;46.748;8.102;2022-12-15T05:15:38;92620.00;;;7.20
15575;BMP180;7888;46.748;8.102;2022-12-15T05:18:22;92621.00;;;7.20
15575;BMP180;7888;46.748;8.102;2022-12-15T07:02:23;92568.00;;;7.00
15575;BMP180;7888;46.748;8.102;2022-12-15T07:04:49;92583.00;;;7.00
15575;BMP180;7888;46.748;8.102;2022-12-15T07:07:14;92592.00;;;7.10
15575;BMP180;7888;46.748;8.102;2022-12-15T07:09:40;92586.00;;;7.10
15575;BMP180;7888;46.748;8.102;2022-12-15T07:12:08;92602.00;;;7.10
15575;BMP180;7888;46.748;8.102;2022-12-15T07:14:34;92598.00;;;7.10
15575;BMP180;7888;46.748;8.102;2022-12-15T07:17:00;92605.00;;;7.10
15575;BMP180;7888;46.748;8.102;2022-12-15T07:19:26;92619.00;;;7.20
15575;BMP180;7888;46.748;8.102;2022-12-15T07:21:51;92615.00;;;7.20
15575;BMP180;7888;46.748;8.102;2022-12-15T07:24:17;92617.00;;;7.20
15575;BMP180;7888;46.748;8.102;2022-12-15T07:26:43;92633.00;;;7.30
15575;BMP180;7888;46.748;8.102;2022-12-15T07:29:11;92650.00;;;7.30
15575;BMP180;7888;46.748;8.102;2022-12-15T07:31:37;92640.00;;;7.30
15575;BMP180;7888;46.748;8.102;2022-12-15T07:34:03;92648.00;;;7.30
15575;BMP180;7888;46.748;8.102;2022-12-15T07:36:29;92646.00;;;7.30
15575;BMP180;7888;46.748;8.102;2022-12-15T07:38:59;92643.00;;;7.30
15575;BMP180;7888;46.748;8.102;2022-12-15T07:41:26;92648.00;;;7.40
15575;BMP180;7888;46.748;8.102;2022-12-15T07:43:52;92635.00;;;7.40
15575;BMP180;7888;46.748;8.102;2022-12-15T07:46:18;92641.00;;;7.40
15575;BMP180;7888;46.748;8.102;2022-12-15T07:48:45;92640.00;;;7.50
15575;BMP180;7888;46.748;8.102;2022-12-15T07:51:11;92631.00;;;7.50
15575;BMP180;7888;46.748;8.102;2022-12-15T07:53:37;92653.00;;;7.50
15575;BMP180;7888;46.748;8.102;2022-12-15T07:56:04;92645.00;;;7.50
15575;BMP180;7888;46.748;8.102;2022-12-15T07:58:31;92648.00;;;7.60
15575;BMP180;7888;46.748;8.102;2022-12-15T08:01:01;92649.00;;;7.60
15575;BMP180;7888;46.748;8.102;2022-12-15T08:03:28;92646.00;;;7.60
15575;BMP180;7888;46.748;8.102;2022-12-15T08:05:55;92647.00;;;7.60
15575;BMP180;7888;46.748;8.102;2022-12-15T08:08:21;92644.00;;;7.60
15575;BMP180;7888;46.748;8.102;2022-12-15T08:10:47;92645.00;;;7.60
15575;BMP180;7888;46.748;8.102;2022-12-15T08:13:14;92648.00;;;7.60
15575;BMP180;7888;46.748;8.102;2022-12-15T08:15:40;92646.00;;;7.60
15575;BMP180;7888;46.748;8.102;2022-12-15T08:18:07;92643.00;;;7.60
15575;BMP180;7888;46.748;8.102;2022-12-15T08:20:34;92646.00;;;7.60
15575;BMP180;7888;46.748;8.102;2022-12-15T08:23:00;92650.00;;;7.70
15575;BMP180;7888;46.748;8.102;2022-12-15T08:25:26;92644.00;;;7.70
15575;BMP180;7888;46.748;8.102;2022-12-15T08:27:56;92631.00;;;7.80
15575;BMP180;7888;46.748;8.102;2022-12-15T08:30:22;92638.00;;;7.70
15575;BMP180;7888;46.748;8.102;2022-12-15T08:32:49;92638.00;;;7.80
15575;BMP180;7888;46.748;8.102;2022-12-15T08:35:15;92632.00;;;7.80
15575;BMP180;7888;46.748;8.102;2022-12-15T08:37:41;92629.00;;;7.80
15575;BMP180;7888;46.748;8.102;2022-12-15T08:40:08;92627.00;;;7.80
15575;BMP180;7888;46.748;8.102;2022-12-15T08:42:38;92620.00;;;7.80
15575;BMP180;7888;46.748;8.102;2022-12-15T08:45:05;92632.00;;;7.90
15575;BMP180;7888;46.748;8.102;2022-12-15T08:47:31;92617.00;;;7.90
15575;BMP180;7888;46.748;8.102;2022-12-15T08:49:56;92612.00;;;8.00
15575;BMP180;7888;46.748;8.102;2022-12-15T08:52:23;92622.00;;;8.10
15575;BMP180;7888;46.748;8.102;2022-12-15T08:54:49;92619.00;;;8.10
15575;BMP180;7888;46.748;8.102;2022-12-15T08:57:14;92618.00;;;8.20
15575;BMP180;7888;46.748;8.102;2022-12-15T08:59:40;92610.00;;;8.20
15575;BMP180;7888;46.748;8.102;2022-12-15T09:02:09;92617.00;;;8.30
15575;BMP180;7888;46.748;8.102;2022-12-15T09:04:36;92611.00;;;8.30
15575;BMP180;7888;46.748;8.102;2022-12-15T09:07:03;92617.00;;;8.40
15575;BMP180;7888;46.748;8.102;2022-12-15T09:09:29;92619.00;;;8.50
15575;BMP180;7888;46.748;8.102;2022-12-15T09:11:54;92623.00;;;8.50
15575;BMP180;7888;46.748;8.102;2022-12-15T09:14:20;92631.00;;;8.60
15575;BMP180;7888;46.748;8.102;2022-12-15T09:16:46;92631.00;;;8.60
15575;BMP180;7888;46.748;8.102;2022-12-15T09:19:12;92634.00;;;8.70
15575;BMP180;7888;46.748;8.102;2022-12-15T09:21:37;92619.00;;;8.70
15575;BMP180;7888;46.748;8.102;2022-12-15T09:24:05;92634.00;;;8.80
15575;BMP180;7888;46.748;8.102;2022-12-15T09:26:33;92623.00;;;8.80
15575;BMP180;7888;46.748;8.102;2022-12-15T09:29:00;92648.00;;;8.90
15575;BMP180;7888;46.748;8.102;2022-12-15T09:31:36;92651.00;;;8.90
15575;BMP180;7888;46.748;8.102;2022-12-15T09:34:02;92669.00;;;9.00
15575;BMP180;7888;46.748;8.102;2022-12-15T09:36:30;92674.00;;;9.00
15575;BMP180;7888;46.748;8.102;2022-12-15T09:38:58;92666.00;;;9.10
15575;BMP180;7888;46.748;8.102;2022-12-15T09:41:34;92671.00;;;9.10
15575;BMP180;7888;46.748;8.102;2022-12-15T09:44:23;92664.00;;;9.20
15575;BMP180;7888;46.748;8.102;2022-12-15T09:50:02;92654.00;;;9.20
15575;BMP180;7888;46.748;8.102;2022-12-15T09:52:32;92652.00;;;9.30
15575;BMP180;7888;46.748;8.102;2022-12-15T09:54:59;92631.00;;;9.30
15575;BMP180;7888;46.748;8.102;2022-12-15T09:57:43;92632.00;;;9.40
15575;BMP180;7888;46.748;8.102;2022-12-15T10:00:24;92627.00;;;9.40
15575;BMP180;7888;46.748;8.102;2022-12-15T10:06:04;92622.00;;;9.50
15575;BMP180;7888;46.748;8.102;2022-12-15T10:08:49;92622.00;;;9.60
15575;BMP180;7888;46.748;8.102;2022-12-15T10:11:45;92618.00;;;9.60
15575;BMP180;7888;46.748;8.102;2022-12-15T10:14:50;92614.00;;;9.70
15575;BMP180;7888;46.748;8.102;2022-12-15T10:22:39;92627.00;;;9.70
15575;BMP180;7888;46.748;8.102;2022-12-15T10:25:28;92613.00;;;9.70
15575;BMP180;7888;46.748;8.102;2022-12-15T10:31:01;92618.00;;;9.80
15575;BMP180;7888;46.748;8.102;2022-12-15T10:33:41;92620.00;;;9.80
15575;BMP180;7888;46.748;8.102;2022-12-15T10:36:14;92626.00;;;9.80
15575;BMP180;7888;46.748;8.102;2022-12-15T10:38:43;92628.00;;;9.90
15575;BMP180;7888;46.748;8.102;2022-12-15T10:41:19;92617.00;;;9.90
15575;BMP180;7888;46.748;8.102;2022-12-15T10:43:49;92618.00;;;9.90
15575;BMP180;7888;46.748;8.102;2022-12-15T10:48:50;92590.00;;;10.00
15575;BMP180;7888;46.748;8.102;2022-12-15T10:51:50;92588.00;;;10.00
15575;BMP180;7888;46.748;8.102;2022-12-15T10:54:14;92585.00;;;10.00
15575;BMP180;7888;46.748;8.102;2022-12-15T10:56:57;92572.00;;;10.00
15575;BMP180;7888;46.748;8.102;2022-12-15T10:59:36;92562.00;;;10.10
15575;BMP180;7888;46.748;8.102;2022-12-15T11:10:26;92539.00;;;10.20
15575;BMP180;7888;46.748;8.102;2022-12-15T11:13:17;92531.00;;;10.30
15575;BMP180;7888;46.748;8.102;2022-12-15T11:18:34;92519.00;;;10.40
15575;BMP180;7888;46.748;8.102;2022-12-15T11:24:15;92502.00;;;10.40
15575;BMP180;7888;46.748;8.102;2022-12-15T11:26:58;92500.00;;;10.40
15575;BMP180;7888;46.748;8.102;2022-12-15T11:29:59;92507.00;;;10.40
15575;BMP180;7888;46.748;8.102;2022-12-15T11:32:31;92506.00;;;10.50
15575;BMP180;7888;46.748;8.102;2022-12-15T11:34:58;92499.00;;;10.50
15575;BMP180;7888;46.748;8.102;2022-12-15T11:48:40;92490.00;;;10.50
15575;BMP180;7888;46.748;8.102;2022-12-15T11:51:16;92480.00;;;10.50
15575;BMP180;7888;46.748;8.102;2022-12-15T11:54:15;92480.00;;;10.50
15575;BMP180;7888;46.748;8.102;2022-12-15T11:57:27;92465.00;;;10.50
15575;BMP180;7888;46.748;8.102;2022-12-15T12:00:17;92456.00;;;10.50
15575;BMP180;7888;46.748;8.102;2022-12-15T12:03:24;92457.00;;;10.50
15575;BMP180;7888;46.748;8.102;2022-12-15T12:06:11;92444.00;;;10.50
15575;BMP180;7888;46.748;8.102;2022-12-15T12:08:53;92439.00;;;10.50
15575;BMP180;7888;46.748;8.102;2022-12-15T12:11:36;92441.00;;;10.50
15575;BMP180;7888;46.748;8.102;2022-12-15T12:17:42;92432.00;;;10.50
15575;BMP180;7888;46.748;8.102;2022-12-15T12:20:51;92423.00;;;10.50
15575;BMP180;7888;46.748;8.102;2022-12-15T12:23:33;92423.00;;;10.60
15575;BMP180;7888;46.748;8.102;2022-12-15T12:26:14;92405.00;;;10.50
15575;BMP180;7888;46.748;8.102;2022-12-15T12:29:37;92406.00;;;10.50
15575;BMP180;7888;46.748;8.102;2022-12-15T12:32:10;92397.00;;;10.60
15575;BMP180;7888;46.748;8.102;2022-12-15T12:34:55;92398.00;;;10.60
15575;BMP180;7888;46.748;8.102;2022-12-15T12:37:57;92388.00;;;10.50
15575;BMP180;7888;46.748;8.102;2022-12-15T12:43:07;92387.00;;;10.50
15575;BMP180;7888;46.748;8.102;2022-12-15T12:45:47;92369.00;;;10.50
15575;BMP180;7888;46.748;8.102;2022-12-15T12:51:37;92361.00;;;10.50
15575;BMP180;7888;46.748;8.102;2022-12-15T13:05:20;92337.00;;;10.50
15575;BMP180;7888;46.748;8.102;2022-12-15T13:07:55;92334.00;;;10.50
15575;BMP180;7888;46.748;8.102;2022-12-15T13:10:23;92327.00;;;10.50
15575;BMP180;7888;46.748;8.102;2022-12-15T13:12:55;92333.00;;;10.60
15575;BMP180;7888;46.748;8.102;2022-12-15T13:18:13;92322.00;;;10.50
15575;BMP180;7888;46.748;8.102;2022-12-15T13:20:40;92308.00;;;10.50
15575;BMP180;7888;46.748;8.102;2022-12-15T13:33:55;92289.00;;;10.40
15575;BMP180;7888;46.748;8.102;2022-12-15T13:41:41;92290.00;;;10.30
15575;BMP180;7888;46.748;8.102;2022-12-15T13:50:25;92294.00;;;10.30
15575;BMP180;7888;46.748;8.102;2022-12-15T13:52:51;92304.00;;;10.30
15575;BMP180;7888;46.748;8.102;2022-12-15T13:55:25;92309.00;;;10.30
15575;BMP180;7888;46.748;8.102;2022-12-15T13:58:14;92313.00;;;10.30
15575;BMP180;7888;46.748;8.102;2022-12-15T14:00:56;92316.00;;;10.30
15575;BMP180;7888;46.748;8.102;2022-12-15T14:03:25;92313.00;;;10.30
15575;BMP180;7888;46.748;8.102;2022-12-15T14:05:55;92328.00;;;10.30
15575;BMP180;7888;46.748;8.102;2022-12-15T14:08:23;92325.00;;;10.30
15575;BMP180;7888;46.748;8.102;2022-12-15T14:10:57;92330.00;;;10.20
15575;BMP180;7888;46.748;8.102;2022-12-15T14:13:32;92316.00;;;10.30
15575;BMP180;7888;46.748;8.102;2022-12-15T14:16:05;92305.00;;;10.20
15575;BMP180;7888;46.748;8.102;2022-12-15T14:18:42;92297.00;;;10.20
15575;BMP180;7888;46.748;8.102;2022-12-15T14:21:22;92303.00;;;10.20
15575;BMP180;7888;46.748;8.102;2022-12-15T14:23:49;92302.00;;;10.20
15575;BMP180;7888;46.748;8.102;2022-12-15T14:26:15;92291.00;;;10.20
15575;BMP180;7888;46.748;8.102;2022-12-15T14:28:46;92285.00;;;10.10
15575;BMP180;7888;46.748;8.102;2022-12-15T14:31:20;92299.00;;;10.20
15575;BMP180;7888;46.748;8.102;2022-12-15T14:34:01;92297.00;;;10.20
15575;BMP180;7888;46.748;8.102;2022-12-15T14:36:30;92302.00;;;10.20
15575;BMP180;7888;46.748;8.102;2022-12-15T14:39:06;92284.00;;;10.10
15575;BMP180;7888;46.748;8.102;2022-12-15T14:41:43;92294.00;;;10.10
15575;BMP180;7888;46.748;8.102;2022-12-15T14:46:48;92293.00;;;10.10
15575;BMP180;7888;46.748;8.102;2022-12-15T14:49:38;92299.00;;;10.00
15575;BMP180;7888;46.748;8.102;2022-12-15T14:52:16;92298.00;;;10.00
15575;BMP180;7888;46.748;8.102;2022-12-15T14:55:00;92307.00;;;10.00
15575;BMP180;7888;46.748;8.102;2022-12-15T14:57:43;92313.00;;;9.90
15575;BMP180;7888;46.748;8.102;2022-12-15T15:00:35;92317.00;;;9.90
15575;BMP180;7888;46.748;8.102;2022-12-15T15:03:38;92313.00;;;9.90
15575;BMP180;7888;46.748;8.102;2022-12-15T15:08:49;92317.00;;;9.90
15575;BMP180;7888;46.748;8.102;2022-12-15T15:11:34;92318.00;;;9.80
15575;BMP180;7888;46.748;8.102;2022-12-15T15:14:19;92314.00;;;9.80
15575;BMP180;7888;46.748;8.102;2022-12-15T15:17:02;92323.00;;;9.80
15575;BMP180;7888;46.748;8.102;2022-12-15T15:19:31;92315.00;;;9.90
15575;BMP180;7888;46.748;8.102;2022-12-15T15:21:59;92321.00;;;9.90
15575;BMP180;7888;46.748;8.102;2022-12-15T15:24:34;92317.00;;;9.80
15575;BMP180;7888;46.748;8.102;2022-12-15T15:29:50;92318.00;;;9.80
15575;BMP180;7888;46.748;8.102;2022-12-15T15:32:21;92313.00;;;9.80
15575;BMP180;7888;46.748;8.102;2022-12-15T15:34:48;92316.00;;;9.80
15575;BMP180;7888;46.748;8.102;2022-12-15T15:37:24;92309.00;;;9.70
15575;BMP180;7888;46.748;8.102;2022-12-15T15:39:53;92302.00;;;9.70
15575;BMP180;7888;46.748;8.102;2022-12-15T15:42:20;92297.00;;;9.70
15575;BMP180;7888;46.748;8.102;2022-12-15T15:44:46;92290.00;;;9.70
15575;BMP180;7888;46.748;8.102;2022-12-15T15:47:24;92278.00;;;9.70
15575;BMP180;7888;46.748;8.102;2022-12-15T15:49:52;92269.00;;;9.70
15575;BMP180;7888;46.748;8.102;2022-12-15T15:52:20;92268.00;;;9.70
15575;BMP180;7888;46.748;8.102;2022-12-15T15:54:46;92269.00;;;9.70
15575;BMP180;7888;46.748;8.102;2022-12-15T15:57:17;92268.00;;;9.60
15575;BMP180;7888;46.748;8.102;2022-12-15T15:59:43;92270.00;;;9.70
15575;BMP180;7888;46.748;8.102;2022-12-15T16:02:12;92278.00;;;9.60
15575;BMP180;7888;46.748;8.102;2022-12-15T16:04:42;92276.00;;;9.60
15575;BMP180;7888;46.748;8.102;2022-12-15T16:07:35;92251.00;;;9.60
15575;BMP180;7888;46.748;8.102;2022-12-15T16:10:01;92267.00;;;9.60
15575;BMP180;7888;46.748;8.102;2022-12-15T16:12:38;92266.00;;;9.60
15575;BMP180;7888;46.748;8.102;2022-12-15T16:15:18;92266.00;;;9.60
15575;BMP180;7888;46.748;8.102;2022-12-15T16:17:46;92274.00;;;9.60
15575;BMP180;7888;46.748;8.102;2022-12-15T16:20:15;92271.00;;;9.60
15575;BMP180;7888;46.748;8.102;2022-12-15T16:22:45;92265.00;;;9.50
15575;BMP180;7888;46.748;8.102;2022-12-15T16:25:36;92263.00;;;9.50
15575;BMP180;7888;46.748;8.102;2022-12-15T16:28:21;92257.00;;;9.50
15575;BMP180;7888;46.748;8.102;2022-12-15T16:30:48;92254.00;;;9.50
15575;BMP180;7888;46.748;8.102;2022-12-15T16:33:15;92260.00;;;9.50
15575;BMP180;7888;46.748;8.102;2022-12-15T16:35:43;92250.00;;;9.50
15575;BMP180;7888;46.748;8.102;2022-12-15T16:38:28;92241.00;;;9.50
15575;BMP180;7888;46.748;8.102;2022-12-15T16:40:56;92248.00;;;9.50
15575;BMP180;7888;46.748;8.102;2022-12-15T16:43:25;92237.00;;;9.50
15575;BMP180;7888;46.748;8.102;2022-12-15T16:45:53;92237.00;;;9.50
15575;BMP180;7888;46.748;8.102;2022-12-15T16:48:19;92229.00;;;9.50
15575;BMP180;7888;46.748;8.102;2022-12-15T16:50:54;92215.00;;;9.50
15575;BMP180;7888;46.748;8.102;2022-12-15T16:53:26;92222.00;;;9.50
15575;BMP180;7888;46.748;8.102;2022-12-15T16:55:56;92220.00;;;9.50
15575;BMP180;7888;46.748;8.102;2022-12-15T16:58:24;92220.00;;;9.50
15575;BMP180;7888;46.748;8.102;2022-12-15T17:00:51;92226.00;;;9.50
15575;BMP180;7888;46.748;8.102;2022-12-15T17:03:20;92227.00;;;9.40
15575;BMP180;7888;46.748;8.102;2022-12-15T17:05:53;92222.00;;;9.40
15575;BMP180;7888;46.748;8.102;2022-12-15T17:10:56;92216.00;;;9.40
15575;BMP180;7888;46.748;8.102;2022-12-15T17:13:37;92219.00;;;9.30
15575;BMP180;7888;46.748;8.102;2022-12-15T17:16:05;92218.00;;;9.40
15575;BMP180;7888;46.748;8.102;2022-12-15T17:18:32;92212.00;;;9.40
15575;BMP180;7888;46.748;8.102;2022-12-15T17:21:14;92217.00;;;9.30
15575;BMP180;7888;46.748;8.102;2022-12-15T17:23:44;92221.00;;;9.30
15575;BMP180;7888;46.748;8.102;2022-12-15T17:26:23;92211.00;;;9.30
15575;BMP180;7888;46.748;8.102;2022-12-15T17:28:49;92207.00;;;9.30
15575;BMP180;7888;46.748;8.102;2022-12-15T17:31:21;92196.00;;;9.30
15575;BMP180;7888;46.748;8.102;2022-12-15T17:33:48;92187.00;;;9.30
15575;BMP180;7888;46.748;8.102;2022-12-15T17:36:19;92180.00;;;9.30
15575;BMP180;7888;46.748;8.102;2022-12-15T17:38:54;92185.00;;;9.30
15575;BMP180;7888;46.748;8.102;2022-12-15T17:41:20;92191.00;;;9.30
15575;BMP180;7888;46.748;8.102;2022-12-15T17:43:46;92176.00;;;9.30
15575;BMP180;7888;46.748;8.102;2022-12-15T17:46:13;92191.00;;;9.30
15575;BMP180;7888;46.748;8.102;2022-12-15T17:48:38;92187.00;;;9.30
15575;BMP180;7888;46.748;8.102;2022-12-15T17:51:17;92186.00;;;9.30
15575;BMP180;7888;46.748;8.102;2022-12-15T17:53:45;92191.00;;;9.30
15575;BMP180;7888;46.748;8.102;2022-12-15T17:56:14;92189.00;;;9.30
15575;BMP180;7888;46.748;8.102;2022-12-15T17:58:41;92198.00;;;9.30
15575;BMP180;7888;46.748;8.102;2022-12-15T18:01:12;92187.00;;;9.30
15575;BMP180;7888;46.748;8.102;2022-12-15T18:03:38;92205.00;;;9.30
15575;BMP180;7888;46.748;8.102;2022-12-15T18:06:11;92204.00;;;9.30
15575;BMP180;7888;46.748;8.102;2022-12-15T18:08:39;92211.00;;;9.30
15575;BMP180;7888;46.748;8.102;2022-12-15T18:11:05;92216.00;;;9.30
15575;BMP180;7888;46.748;8.102;2022-12-15T18:13:32;92231.00;;;9.30
15575;BMP180;7888;46.748;8.102;2022-12-15T18:15:59;92236.00;;;9.30
15575;BMP180;7888;46.748;8.102;2022-12-15T18:18:26;92237.00;;;9.30
15575;BMP180;7888;46.748;8.102;2022-12-15T18:20:57;92237.00;;;9.20
15575;BMP180;7888;46.748;8.102;2022-12-15T18:23:28;92238.00;;;9.20
15575;BMP180;7888;46.748;8.102;2022-12-15T18:25:56;92240.00;;;9.20
15575;BMP180;7888;46.748;8.102;2022-12-15T18:28:31;92246.00;;;9.20
15575;BMP180;7888;46.748;8.102;2022-12-15T18:31:26;92259.00;;;9.20
15575;BMP180;7888;46.748;8.102;2022-12-15T18:33:54;92265.00;;;9.20
15575;BMP180;7888;46.748;8.102;2022-12-15T18:36:21;92257.00;;;9.20
15575;BMP180;7888;46.748;8.102;2022-12-15T18:38:48;92254.00;;;9.20
15575;BMP180;7888;46.748;8.102;2022-12-15T18:41:18;92245.00;;;9.20
15575;BMP180;7888;46.748;8.102;2022-12-15T18:43:46;92249.00;;;9.30
15575;BMP180;7888;46.748;8.102;2022-12-15T18:46:16;92237.00;;;9.20
15575;BMP180;7888;46.748;8.102;2022-12-15T18:48:44;92234.00;;;9.20
15575;BMP180;7888;46.748;8.102;2022-12-15T18:51:20;92252.00;;;9.20
15575;BMP180;7888;46.748;8.102;2022-12-15T18:53:47;92241.00;;;9.20
15575;BMP180;7888;46.748;8.102;2022-12-15T18:56:16;92251.00;;;9.20
15575;BMP180;7888;46.748;8.102;2022-12-15T18:58:46;92239.00;;;9.20